createdAt,value
2019-01-11T00:00:27.491Z,87.12
2019-01-11T00:01:27.522Z,86.57
2019-01-11T00:02:27.467Z,86.91
2019-01-11T00:03:27.459Z,86.67
2019-01-11T00:04:27.447Z,86.98
2019-01-11T00:05:27.436Z,86.67
2019-01-11T00:06:27.425Z,86.67
2019-01-11T00:07:27.436Z,86.77
2019-01-11T00:08:27.405Z,86.67
2019-01-11T00:09:27.391Z,87.08
2019-01-11T00:10:27.380Z,87.43
2019-01-11T00:11:27.371Z,87.19
2019-01-11T00:12:27.383Z,87.33
2019-01-11T00:13:27.347Z,86.81
2019-01-11T00:14:27.335Z,87.23
2019-01-11T00:15:27.324Z,87.19
2019-01-11T00:16:27.313Z,87.50
2019-01-11T00:17:27.331Z,87.02
2019-01-11T00:18:27.293Z,87.33
2019-01-11T00:19:27.279Z,87.54
2019-01-11T00:20:27.269Z,87.75
2019-01-11T00:21:27.259Z,88.20
2019-01-11T00:22:27.273Z,88.06
2019-01-11T00:23:27.235Z,87.96
2019-01-11T00:24:27.225Z,88.17
2019-01-11T00:25:27.214Z,88.42
2019-01-11T00:26:27.207Z,88.17
2019-01-11T00:27:27.224Z,88.17
2019-01-11T00:28:27.184Z,88.17
2019-01-11T00:29:27.173Z,88.17
2019-01-11T00:30:27.161Z,88.06
2019-01-11T00:31:27.150Z,88.06
2019-01-11T00:32:27.146Z,87.85
2019-01-11T00:33:27.150Z,87.65
2019-01-11T00:34:27.114Z,88.37
2019-01-11T00:35:27.105Z,87.96
2019-01-11T00:36:27.094Z,87.75
2019-01-11T00:37:27.085Z,87.75
2019-01-11T00:38:27.095Z,87.65
2019-01-11T00:39:27.060Z,86.81
2019-01-11T00:40:27.050Z,87.33
2019-01-11T00:41:27.047Z,87.33
2019-01-11T00:42:27.026Z,87.23
2019-01-11T00:43:27.039Z,87.54
2019-01-11T00:44:27.004Z,87.08
2019-01-11T00:45:27.009Z,86.88
2019-01-11T00:46:26.982Z,87.40
2019-01-11T00:47:26.979Z,87.50
2019-01-11T00:48:26.986Z,87.60
2019-01-11T00:49:26.951Z,87.54
2019-01-11T00:50:26.939Z,87.54
2019-01-11T00:51:26.930Z,87.29
2019-01-11T00:52:26.917Z,87.43
2019-01-11T00:53:26.947Z,87.29
2019-01-11T00:54:26.899Z,87.19
2019-01-11T00:55:26.885Z,87.02
2019-01-11T00:56:26.877Z,87.12
2019-01-11T00:57:26.864Z,87.60
2019-01-11T00:58:26.851Z,87.40
2019-01-11T00:59:26.864Z,88.17
2019-01-11T01:00:26.830Z,88.17
2019-01-11T01:01:26.818Z,87.75
2019-01-11T01:02:26.809Z,87.54
2019-01-11T01:03:26.798Z,87.60
2019-01-11T01:04:26.807Z,87.40
2019-01-11T01:05:26.774Z,87.19
2019-01-11T01:06:26.765Z,87.19
2019-01-11T01:07:26.752Z,86.88
2019-01-11T01:08:30.537Z,86.88
2019-01-11T01:09:26.752Z,86.63
2019-01-11T01:10:26.718Z,86.21
2019-01-11T01:11:26.708Z,86.42
2019-01-11T01:12:26.705Z,86.52
2019-01-11T01:13:26.688Z,86.42
2019-01-11T01:14:26.705Z,85.90
2019-01-11T01:15:26.666Z,86.94
2019-01-11T01:16:26.652Z,86.88
2019-01-11T01:17:26.646Z,87.50
2019-01-11T01:18:26.630Z,87.25
2019-01-11T01:19:26.622Z,87.40
2019-01-11T01:20:26.632Z,87.50
2019-01-11T01:21:26.599Z,87.25
2019-01-11T01:22:26.589Z,87.19
2019-01-11T01:23:26.577Z,87.46
2019-01-11T01:24:26.563Z,87.35
2019-01-11T01:25:26.577Z,87.29
2019-01-11T01:26:26.543Z,87.19
2019-01-11T01:27:26.532Z,87.25
2019-01-11T01:28:26.531Z,87.56
2019-01-11T01:29:26.512Z,86.73
2019-01-11T01:30:26.519Z,87.25
2019-01-11T01:31:26.491Z,87.29
2019-01-11T01:32:26.478Z,87.35
2019-01-11T01:33:26.474Z,87.77
2019-01-11T01:34:26.458Z,86.94
2019-01-11T01:35:26.469Z,86.94
2019-01-11T01:36:26.432Z,86.63
2019-01-11T01:37:26.422Z,86.73
2019-01-11T01:38:26.411Z,86.83
2019-01-11T01:39:26.399Z,86.63
2019-01-11T01:40:26.423Z,86.63
2019-01-11T01:41:26.376Z,86.83
2019-01-11T01:42:26.365Z,86.73
2019-01-11T01:43:26.357Z,86.83
2019-01-11T01:44:26.346Z,86.32
2019-01-11T01:45:26.332Z,86.21
2019-01-11T01:46:26.346Z,86.52
2019-01-11T01:47:26.311Z,86.32
2019-01-11T01:48:26.304Z,86.17
2019-01-11T01:49:26.666Z,85.75
2019-01-11T01:50:26.278Z,85.28
2019-01-11T01:51:26.305Z,85.86
2019-01-11T01:52:26.256Z,86.27
2019-01-11T01:53:26.244Z,85.13
2019-01-11T01:54:26.238Z,85.86
2019-01-11T01:55:26.223Z,85.65
2019-01-11T01:56:26.212Z,86.63
2019-01-11T01:57:26.225Z,86.63
2019-01-11T01:58:26.189Z,86.73
2019-01-11T01:59:26.179Z,87.15
2019-01-11T02:00:26.175Z,87.46
2019-01-11T02:01:26.158Z,87.46
2019-01-11T02:02:26.168Z,87.25
2019-01-11T02:03:26.134Z,87.15
2019-01-11T02:04:26.123Z,87.25
2019-01-11T02:05:26.114Z,87.35
2019-01-11T02:06:26.105Z,87.88
2019-01-11T02:07:26.114Z,88.09
2019-01-11T02:08:26.083Z,88.29
2019-01-11T02:09:26.070Z,88.09
2019-01-11T02:10:26.057Z,88.60
2019-01-11T02:11:26.047Z,88.81
2019-01-11T02:12:26.060Z,88.19
2019-01-11T02:13:26.026Z,88.29
2019-01-11T02:14:26.016Z,88.29
2019-01-11T02:15:26.003Z,88.19
2019-01-11T02:16:25.993Z,87.88
2019-01-11T02:17:26.007Z,88.40
2019-01-11T02:18:25.970Z,87.98
2019-01-11T02:19:25.966Z,88.29
2019-01-11T02:20:25.949Z,88.19
2019-01-11T02:21:25.937Z,88.19
2019-01-11T02:22:25.926Z,88.09
2019-01-11T02:23:25.943Z,88.50
2019-01-11T02:24:25.908Z,88.92
2019-01-11T02:25:25.893Z,89.37
2019-01-11T02:26:25.884Z,89.33
2019-01-11T02:27:25.870Z,89.43
2019-01-11T02:28:25.883Z,89.27
2019-01-11T02:29:25.852Z,89.02
2019-01-11T02:30:25.843Z,88.19
2019-01-11T02:31:25.830Z,88.09
2019-01-11T02:32:25.817Z,87.77
2019-01-11T02:33:25.827Z,87.88
2019-01-11T02:34:25.794Z,88.09
2019-01-11T02:35:25.783Z,88.19
2019-01-11T02:36:25.773Z,88.29
2019-01-11T02:37:25.765Z,88.09
2019-01-11T02:38:25.782Z,88.29
2019-01-11T02:39:25.742Z,88.19
2019-01-11T02:40:25.731Z,88.09
2019-01-11T02:41:25.719Z,88.09
2019-01-11T02:42:25.714Z,88.40
2019-01-11T02:43:25.711Z,88.09
2019-01-11T02:44:25.713Z,88.09
2019-01-11T02:45:25.673Z,88.09
2019-01-11T02:46:25.661Z,87.77
2019-01-11T02:47:25.655Z,87.88
2019-01-11T02:48:25.642Z,87.77
2019-01-11T02:49:25.652Z,88.29
2019-01-11T02:50:25.617Z,87.88
2019-01-11T02:51:25.608Z,88.19
2019-01-11T02:52:25.606Z,88.50
2019-01-11T02:53:25.586Z,88.40
2019-01-11T02:54:25.598Z,87.98
2019-01-11T02:55:25.563Z,88.09
2019-01-11T02:56:25.555Z,87.94
2019-01-11T02:57:25.554Z,87.98
2019-01-11T02:58:25.531Z,87.88
2019-01-11T02:59:25.541Z,87.88
2019-01-11T03:00:25.516Z,87.88
2019-01-11T03:01:25.506Z,88.29
2019-01-11T03:02:25.485Z,87.77
2019-01-11T03:03:25.476Z,87.66
2019-01-11T03:04:25.579Z,87.66
2019-01-11T03:05:25.599Z,87.66
2019-01-11T03:06:25.446Z,88.50
2019-01-11T03:07:25.431Z,87.88
2019-01-11T03:08:25.418Z,87.66
2019-01-11T03:09:25.420Z,88.09
2019-01-11T03:10:25.425Z,87.88
2019-01-11T03:11:25.385Z,88.09
2019-01-11T03:12:25.378Z,88.29
2019-01-11T03:13:25.367Z,88.09
2019-01-11T03:14:25.352Z,87.98
2019-01-11T03:15:25.367Z,88.40
2019-01-11T03:16:25.332Z,88.19
2019-01-11T03:17:25.328Z,88.19
2019-01-11T03:18:25.308Z,87.98
2019-01-11T03:19:25.301Z,87.88
2019-01-11T03:20:25.319Z,87.98
2019-01-11T03:21:25.275Z,87.77
2019-01-11T03:22:25.266Z,87.66
2019-01-11T03:23:25.254Z,87.88
2019-01-11T03:24:25.242Z,87.66
2019-01-11T03:25:25.233Z,87.88
2019-01-11T03:26:25.242Z,87.98
2019-01-11T03:27:25.210Z,87.71
2019-01-11T03:28:25.201Z,88.12
2019-01-11T03:29:25.190Z,88.50
2019-01-11T03:30:25.192Z,87.71
2019-01-11T03:31:25.191Z,88.12
2019-01-11T03:32:25.155Z,88.33
2019-01-11T03:33:25.142Z,87.88
2019-01-11T03:34:25.133Z,88.23
2019-01-11T03:35:25.124Z,88.19
2019-01-11T03:36:25.144Z,88.33
2019-01-11T03:37:25.100Z,87.50
2019-01-11T03:38:25.091Z,87.71
2019-01-11T03:39:25.075Z,87.29
2019-01-11T03:40:25.066Z,87.92
2019-01-11T03:41:25.078Z,88.02
2019-01-11T03:42:25.043Z,88.23
2019-01-11T03:43:25.036Z,87.81
2019-01-11T03:44:25.022Z,88.33
2019-01-11T03:45:25.018Z,88.64
2019-01-11T03:46:25.024Z,88.12
2019-01-11T03:47:25.000Z,88.12
2019-01-11T03:48:24.978Z,87.92
2019-01-11T03:49:24.966Z,88.02
2019-01-11T03:50:24.956Z,87.98
2019-01-11T03:51:24.985Z,87.88
2019-01-11T03:52:24.937Z,88.19
2019-01-11T03:53:24.934Z,87.66
2019-01-11T03:54:24.915Z,87.56
2019-01-11T03:55:24.901Z,86.73
2019-01-11T03:56:24.891Z,87.25
2019-01-11T03:57:24.899Z,87.04
2019-01-11T03:58:24.867Z,87.15
2019-01-11T03:59:24.860Z,87.15
2019-01-11T04:00:24.847Z,86.94
2019-01-11T04:01:24.835Z,87.25
2019-01-11T04:02:24.846Z,87.46
2019-01-11T04:03:24.819Z,87.56
2019-01-11T04:04:24.818Z,87.35
2019-01-11T04:05:24.790Z,87.46
2019-01-11T04:06:24.781Z,87.77
2019-01-11T04:07:24.810Z,87.35
2019-01-11T04:08:24.758Z,87.04
2019-01-11T04:09:24.750Z,87.46
2019-01-11T04:10:24.737Z,87.25
2019-01-11T04:11:24.724Z,87.35
2019-01-11T04:12:24.712Z,87.25
2019-01-11T04:13:30.541Z,86.83
2019-01-11T04:14:25.691Z,87.56
2019-01-11T04:15:24.681Z,87.46
2019-01-11T04:16:24.673Z,87.25
2019-01-11T04:17:24.658Z,87.25
2019-01-11T04:18:24.668Z,87.15
2019-01-11T04:19:24.635Z,87.35
2019-01-11T04:20:24.625Z,86.98
2019-01-11T04:21:24.615Z,87.66
2019-01-11T04:22:24.604Z,87.04
2019-01-11T04:23:24.621Z,87.35
2019-01-11T04:24:24.580Z,87.46
2019-01-11T04:25:24.571Z,86.83
2019-01-11T04:26:24.562Z,86.94
2019-01-11T04:27:24.548Z,87.25
2019-01-11T04:28:24.558Z,87.77
2019-01-11T04:29:24.524Z,87.66
2019-01-11T04:30:24.512Z,87.77
2019-01-11T04:31:24.506Z,87.46
2019-01-11T04:32:24.491Z,87.15
2019-01-11T04:33:24.504Z,87.15
2019-01-11T04:34:24.476Z,87.25
2019-01-11T04:35:24.458Z,87.77
2019-01-11T04:36:24.449Z,88.09
2019-01-11T04:37:24.436Z,88.29
2019-01-11T04:38:24.463Z,88.09
2019-01-11T04:39:24.415Z,88.19
2019-01-11T04:40:24.403Z,88.60
2019-01-11T04:41:24.396Z,88.29
2019-01-11T04:42:24.381Z,88.40
2019-01-11T04:43:24.371Z,88.71
2019-01-11T04:44:24.381Z,88.09
2019-01-11T04:45:24.352Z,88.19
2019-01-11T04:46:24.337Z,88.29
2019-01-11T04:47:24.328Z,87.88
2019-01-11T04:48:24.315Z,88.19
2019-01-11T04:49:24.327Z,87.98
2019-01-11T04:50:24.297Z,88.60
2019-01-11T04:51:24.282Z,88.19
2019-01-11T04:52:24.271Z,87.88
2019-01-11T04:53:24.263Z,88.40
2019-01-11T04:54:24.271Z,88.50
2019-01-11T04:55:24.239Z,88.40
2019-01-11T04:56:24.231Z,88.19
2019-01-11T04:57:24.217Z,88.29
2019-01-11T04:58:24.214Z,88.19
2019-01-11T04:59:24.226Z,88.50
2019-01-11T05:00:24.183Z,89.06
2019-01-11T05:01:24.178Z,88.40
2019-01-11T05:02:24.162Z,88.50
2019-01-11T05:03:24.155Z,88.29
2019-01-11T05:04:24.161Z,87.88
2019-01-11T05:05:24.129Z,88.19
2019-01-11T05:06:24.119Z,87.98
2019-01-11T05:07:24.108Z,88.29
2019-01-11T05:08:24.100Z,87.52
2019-01-11T05:09:24.130Z,87.46
2019-01-11T05:10:24.076Z,86.83
2019-01-11T05:11:24.066Z,86.94
2019-01-11T05:12:24.051Z,86.94
2019-01-11T05:13:24.041Z,87.11
2019-01-11T05:14:24.031Z,87.35
2019-01-11T05:15:24.056Z,87.46
2019-01-11T05:16:24.008Z,87.77
2019-01-11T05:17:24.006Z,87.88
2019-01-11T05:18:23.994Z,87.25
2019-01-11T05:19:23.976Z,87.01
2019-01-11T05:20:23.986Z,86.94
2019-01-11T05:21:23.952Z,87.32
2019-01-11T05:22:23.941Z,87.35
2019-01-11T05:23:23.936Z,86.94
2019-01-11T05:24:23.921Z,87.35
2019-01-11T05:25:23.933Z,87.77
2019-01-11T05:26:23.899Z,87.66
2019-01-11T05:27:23.941Z,88.09
2019-01-11T05:28:23.875Z,88.29
2019-01-11T05:29:23.868Z,88.09
2019-01-11T05:30:23.876Z,87.73
2019-01-11T05:31:23.842Z,88.25
2019-01-11T05:32:23.832Z,87.98
2019-01-11T05:33:23.823Z,87.94
2019-01-11T05:34:23.811Z,88.04
2019-01-11T05:35:23.831Z,86.80
2019-01-11T05:36:23.786Z,87.21
2019-01-11T05:37:23.778Z,87.32
2019-01-11T05:38:23.765Z,87.21
2019-01-11T05:39:23.756Z,87.32
2019-01-11T05:40:23.766Z,87.21
2019-01-11T05:41:23.731Z,87.11
2019-01-11T05:42:23.723Z,87.42
2019-01-11T05:43:33.102Z,86.69
2019-01-11T05:44:23.701Z,86.90
2019-01-11T05:45:23.709Z,87.21
2019-01-11T05:46:23.677Z,86.69
2019-01-11T05:47:23.668Z,87.35
2019-01-11T05:48:23.654Z,87.21
2019-01-11T05:49:23.648Z,87.32
2019-01-11T05:50:24.508Z,87.52
2019-01-11T05:51:23.624Z,87.11
2019-01-11T05:52:23.610Z,87.32
2019-01-11T05:53:23.600Z,87.73
2019-01-11T05:54:23.591Z,87.84
2019-01-11T05:55:23.611Z,87.66
2019-01-11T05:56:23.566Z,87.94
2019-01-11T05:57:23.561Z,87.21
2019-01-11T05:58:23.546Z,87.42
2019-01-11T05:59:23.552Z,87.21
2019-01-11T06:00:23.526Z,87.52
2019-01-11T06:01:23.533Z,87.88
2019-01-11T06:02:23.504Z,88.09
2019-01-11T06:03:23.489Z,87.32
2019-01-11T06:04:23.520Z,88.29
2019-01-11T06:05:23.467Z,88.19
2019-01-11T06:06:23.480Z,88.81
2019-01-11T06:07:23.491Z,89.12
2019-01-11T06:08:23.439Z,88.81
2019-01-11T06:09:23.422Z,88.71
2019-01-11T06:10:23.411Z,89.12
2019-01-11T06:11:23.425Z,89.12
2019-01-11T06:12:23.389Z,89.12
2019-01-11T06:13:23.381Z,89.43
2019-01-11T06:14:23.367Z,89.64
2019-01-11T06:15:23.356Z,89.64
2019-01-11T06:16:23.378Z,90.06
2019-01-11T06:17:23.335Z,89.75
2019-01-11T06:18:23.361Z,90.06
2019-01-11T06:19:23.311Z,89.85
2019-01-11T06:20:23.301Z,90.06
2019-01-11T06:21:23.289Z,90.06
2019-01-11T06:22:23.308Z,89.85
2019-01-11T06:23:23.271Z,89.54
2019-01-11T06:24:23.268Z,89.85
2019-01-11T06:25:23.246Z,89.54
2019-01-11T06:26:23.237Z,89.64
2019-01-11T06:27:23.247Z,89.95
2019-01-11T06:28:23.214Z,89.75
2019-01-11T06:29:23.202Z,89.54
2019-01-11T06:30:23.190Z,89.95
2019-01-11T06:31:23.181Z,89.81
2019-01-11T06:32:23.188Z,90.06
2019-01-11T06:33:23.158Z,89.18
2019-01-11T06:34:23.430Z,89.18
2019-01-11T06:35:23.233Z,89.18
2019-01-11T06:36:23.161Z,88.98
2019-01-11T06:37:23.696Z,89.02
2019-01-11T06:38:23.195Z,89.33
2019-01-11T06:39:23.097Z,88.81
2019-01-11T06:41:49.094Z,88.77
2019-01-11T06:42:49.045Z,89.18
2019-01-11T06:43:49.030Z,89.29
2019-01-11T06:44:49.025Z,88.67
2019-01-11T06:45:49.008Z,89.02
2019-01-11T06:46:49.001Z,88.92
2019-01-11T06:47:49.007Z,89.18
2019-01-11T06:48:48.977Z,89.23
2019-01-11T06:49:48.967Z,89.33
2019-01-11T06:50:48.958Z,88.81
2019-01-11T06:51:48.945Z,88.77
2019-01-11T06:52:48.954Z,88.77
2019-01-11T06:53:48.941Z,89.18
2019-01-11T06:54:48.913Z,89.18
2019-01-11T06:55:48.941Z,88.67
2019-01-11T06:56:48.890Z,88.15
2019-01-11T06:57:48.898Z,88.04
2019-01-11T06:58:48.868Z,87.84
2019-01-11T06:59:48.856Z,87.94
2019-01-11T07:00:48.850Z,88.25
2019-01-11T07:01:48.838Z,88.04
2019-01-11T07:02:48.843Z,88.19
2019-01-11T07:03:48.812Z,88.40
2019-01-11T07:04:48.802Z,89.54
2019-01-11T07:05:48.790Z,88.98
2019-01-11T07:06:48.784Z,89.23
2019-01-11T07:07:48.815Z,89.33
2019-01-11T07:08:48.763Z,89.18
2019-01-11T07:09:48.763Z,89.18
2019-01-11T07:10:48.735Z,89.02
2019-01-11T07:11:48.724Z,88.81
2019-01-11T07:12:48.713Z,88.71
2019-01-11T07:13:48.724Z,88.29
2019-01-11T07:14:48.696Z,88.50
2019-01-11T07:15:48.682Z,88.29
2019-01-11T07:16:48.671Z,89.43
2019-01-11T07:17:48.664Z,89.33
2019-01-11T07:18:48.666Z,89.18
2019-01-11T07:19:48.646Z,88.25
2019-01-11T07:20:48.630Z,88.81
2019-01-11T07:21:48.615Z,88.71
2019-01-11T07:22:48.604Z,88.60
2019-01-11T07:23:48.613Z,88.35
2019-01-11T07:24:48.587Z,89.02
2019-01-11T07:25:48.570Z,88.92
2019-01-11T07:26:48.563Z,89.02
2019-01-11T07:27:48.551Z,88.40
2019-01-11T07:28:48.562Z,88.35
2019-01-11T07:29:48.527Z,87.84
2019-01-11T07:30:48.518Z,87.73
2019-01-11T07:31:48.505Z,87.42
2019-01-11T07:32:48.494Z,87.63
2019-01-11T07:33:48.505Z,87.63
2019-01-11T07:34:48.471Z,88.04
2019-01-11T07:35:48.462Z,87.73
2019-01-11T07:36:48.449Z,88.46
2019-01-11T07:37:48.440Z,88.92
2019-01-11T07:38:48.463Z,89.12
2019-01-11T07:39:48.416Z,89.08
2019-01-11T07:40:48.406Z,89.64
2019-01-11T07:41:48.399Z,90.06
2019-01-11T07:42:48.385Z,89.70
2019-01-11T07:43:48.374Z,89.64
2019-01-11T07:44:48.399Z,90.16
2019-01-11T07:45:48.355Z,89.29
2019-01-11T07:46:48.339Z,90.12
2019-01-11T07:47:48.336Z,89.70
2019-01-11T07:48:48.318Z,89.92
2019-01-11T07:49:48.330Z,90.02
2019-01-11T07:50:49.427Z,89.85
2019-01-11T07:51:48.285Z,89.85
2019-01-11T07:52:48.272Z,89.85
2019-01-11T07:53:48.282Z,89.54
2019-01-11T07:54:48.271Z,89.85
2019-01-11T07:55:48.246Z,89.92
2019-01-11T07:56:48.229Z,89.95
2019-01-11T07:57:48.217Z,89.85
2019-01-11T07:58:48.207Z,89.54
2019-01-11T07:59:48.227Z,89.64
2019-01-11T08:00:48.184Z,89.92
2019-01-11T08:01:48.174Z,89.95
2019-01-11T08:02:56.407Z,89.92
2019-01-11T08:03:48.152Z,89.92
2019-01-11T08:04:48.140Z,89.92
2019-01-11T08:05:48.149Z,88.77
2019-01-11T08:06:48.118Z,88.77
2019-01-11T08:07:48.116Z,88.67
2019-01-11T08:08:48.095Z,89.29
2019-01-11T08:09:48.086Z,89.29
2019-01-11T08:10:48.095Z,89.18
2019-01-11T08:11:48.063Z,88.81
2019-01-11T08:12:48.051Z,89.33
2019-01-11T08:13:48.044Z,89.95
2019-01-11T08:14:48.030Z,89.64
2019-01-11T08:15:48.038Z,90.06
2019-01-11T08:16:48.008Z,90.33
2019-01-11T08:17:47.997Z,90.23
2019-01-11T08:18:47.993Z,89.95
2019-01-11T08:19:47.980Z,90.06
2019-01-11T08:20:47.998Z,89.92
2019-01-11T08:21:47.958Z,90.16
2019-01-11T08:22:47.944Z,90.69
2019-01-11T08:23:47.934Z,90.16
2019-01-11T08:24:47.920Z,90.37
2019-01-11T08:25:47.930Z,90.69
2019-01-11T08:26:47.900Z,90.33
2019-01-11T08:27:47.890Z,90.26
2019-01-11T08:28:47.877Z,90.23
2019-01-11T08:29:47.897Z,90.95
2019-01-11T08:30:47.855Z,90.44
2019-01-11T08:31:47.873Z,90.23
2019-01-11T08:32:47.832Z,89.92
2019-01-11T08:33:47.824Z,90.02
2019-01-11T08:34:47.809Z,90.23
2019-01-11T08:35:47.801Z,90.54
2019-01-11T08:36:47.807Z,90.44
2019-01-11T08:37:47.778Z,90.44
2019-01-11T08:38:47.772Z,90.54
2019-01-11T08:39:47.762Z,90.23
2019-01-11T08:40:47.743Z,90.12
2019-01-11T08:41:47.795Z,90.33
2019-01-11T08:42:47.727Z,90.23
2019-01-11T08:43:47.711Z,90.23
2019-01-11T08:44:47.709Z,89.87
2019-01-11T08:45:47.688Z,89.56
2019-01-11T08:46:47.739Z,89.56
2019-01-11T08:47:47.743Z,89.70
2019-01-11T08:48:47.654Z,89.60
2019-01-11T08:49:47.645Z,89.92
2019-01-11T08:50:47.634Z,89.92
2019-01-11T08:51:47.622Z,88.84
2019-01-11T08:52:47.637Z,89.04
2019-01-11T08:53:47.601Z,88.84
2019-01-11T08:54:47.590Z,89.46
2019-01-11T08:55:47.578Z,89.50
2019-01-11T08:56:47.570Z,89.77
2019-01-11T08:57:47.578Z,89.50
2019-01-11T08:58:47.544Z,89.98
2019-01-11T08:59:47.556Z,90.29
2019-01-11T09:00:47.522Z,89.87
2019-01-11T09:01:47.511Z,89.87
2019-01-11T09:02:47.657Z,90.19
2019-01-11T09:03:47.495Z,89.56
2019-01-11T09:04:47.478Z,89.46
2019-01-11T09:05:55.754Z,89.56
2019-01-11T09:06:47.458Z,89.36
2019-01-11T09:07:47.466Z,89.46
2019-01-11T09:08:47.434Z,89.98
2019-01-11T09:09:47.424Z,89.98
2019-01-11T09:10:47.416Z,90.19
2019-01-11T09:11:47.402Z,90.39
2019-01-11T09:12:47.417Z,90.91
2019-01-11T09:13:47.379Z,90.29
2019-01-11T09:14:47.368Z,90.29
2019-01-11T09:15:47.359Z,90.08
2019-01-11T09:16:47.350Z,89.87
2019-01-11T09:17:47.369Z,90.19
2019-01-11T09:18:47.324Z,90.29
2019-01-11T09:19:47.312Z,90.70
2019-01-11T09:20:47.300Z,90.19
2019-01-11T09:21:47.294Z,90.39
2019-01-11T09:22:47.284Z,90.91
2019-01-11T09:23:47.293Z,90.50
2019-01-11T09:24:47.262Z,90.19
2019-01-11T09:25:47.250Z,90.19
2019-01-11T09:26:47.237Z,89.87
2019-01-11T09:27:47.224Z,90.19
2019-01-11T09:28:47.234Z,89.98
2019-01-11T09:29:47.204Z,90.60
2019-01-11T09:30:47.191Z,90.70
2019-01-11T09:31:47.180Z,90.45
2019-01-11T09:32:47.169Z,90.50
2019-01-11T09:33:47.179Z,90.35
2019-01-11T09:34:47.147Z,90.39
2019-01-11T09:35:47.136Z,90.19
2019-01-11T09:36:47.125Z,89.94
2019-01-11T09:37:47.113Z,89.83
2019-01-11T09:38:47.124Z,89.94
2019-01-11T09:39:47.095Z,89.94
2019-01-11T09:40:47.083Z,89.83
2019-01-11T09:41:47.075Z,89.42
2019-01-11T09:42:47.058Z,89.42
2019-01-11T09:43:47.070Z,89.83
2019-01-11T09:44:47.036Z,90.04
2019-01-11T09:45:47.027Z,90.14
2019-01-11T09:46:47.015Z,89.83
2019-01-11T09:47:47.006Z,89.83
2019-01-11T09:48:47.027Z,89.98
2019-01-11T09:49:46.994Z,90.14
2019-01-11T09:50:46.972Z,90.14
2019-01-11T09:51:46.962Z,90.25
2019-01-11T09:52:46.951Z,90.14
2019-01-11T09:53:46.938Z,90.04
2019-01-11T09:54:46.945Z,89.48
2019-01-11T09:55:46.915Z,90.04
2019-01-11T09:56:46.904Z,89.62
2019-01-11T09:57:46.893Z,90.04
2019-01-11T09:58:46.883Z,89.69
2019-01-11T09:59:46.892Z,89.42
2019-01-11T10:00:46.860Z,89.73
2019-01-11T10:01:46.852Z,89.79
2019-01-11T10:02:46.838Z,89.37
2019-01-11T10:03:46.892Z,89.27
2019-01-11T10:04:46.841Z,88.54
2019-01-11T10:05:46.805Z,89.17
2019-01-11T10:06:46.794Z,89.06
2019-01-11T10:07:46.782Z,89.06
2019-01-11T10:08:46.771Z,89.06
2019-01-11T10:09:46.782Z,88.75
2019-01-11T10:10:46.748Z,88.54
2019-01-11T10:11:46.738Z,88.75
2019-01-11T10:12:46.728Z,88.96
2019-01-11T10:13:46.714Z,88.75
2019-01-11T10:14:46.733Z,89.06
2019-01-11T10:15:46.694Z,88.61
2019-01-11T10:16:46.682Z,87.99
2019-01-11T10:17:46.670Z,88.20
2019-01-11T10:18:46.660Z,88.61
2019-01-11T10:19:46.649Z,88.40
2019-01-11T10:20:46.658Z,87.99
2019-01-11T10:21:46.627Z,88.92
2019-01-11T10:22:46.615Z,88.71
2019-01-11T10:23:46.605Z,89.13
2019-01-11T10:24:46.594Z,89.03
2019-01-11T10:25:46.602Z,89.23
2019-01-11T10:26:46.571Z,89.03
2019-01-11T10:27:46.562Z,89.03
2019-01-11T10:28:46.552Z,89.27
2019-01-11T10:29:46.538Z,88.96
2019-01-11T10:30:46.546Z,88.82
2019-01-11T10:31:46.515Z,88.61
2019-01-11T10:32:46.504Z,89.75
2019-01-11T10:33:46.493Z,89.79
2019-01-11T10:34:46.485Z,89.44
2019-01-11T10:35:46.492Z,89.86
2019-01-11T10:36:46.461Z,90.06
2019-01-11T10:37:46.451Z,89.96
2019-01-11T10:38:46.440Z,90.17
2019-01-11T10:39:46.426Z,89.86
2019-01-11T10:40:46.435Z,90.06
2019-01-11T10:41:46.404Z,89.86
2019-01-11T10:42:46.397Z,89.86
2019-01-11T10:43:46.386Z,89.34
2019-01-11T10:44:46.372Z,89.75
2019-01-11T10:45:46.383Z,89.86
2019-01-11T10:46:49.209Z,89.75
2019-01-11T10:47:46.339Z,89.40
2019-01-11T10:48:46.328Z,89.86
2019-01-11T10:49:46.317Z,88.98
2019-01-11T10:50:46.326Z,88.71
2019-01-11T10:51:46.299Z,89.61
2019-01-11T10:52:46.285Z,89.81
2019-01-11T10:53:46.273Z,89.71
2019-01-11T10:54:46.269Z,89.19
2019-01-11T10:55:46.284Z,89.09
2019-01-11T10:56:46.240Z,88.78
2019-01-11T10:57:46.236Z,89.19
2019-01-11T10:58:46.221Z,88.26
2019-01-11T10:59:46.207Z,89.29
2019-01-11T11:00:46.196Z,88.98
2019-01-11T11:01:46.215Z,89.09
2019-01-11T11:02:46.173Z,88.88
2019-01-11T11:03:46.175Z,88.98
2019-01-11T11:04:46.157Z,89.15
2019-01-11T11:05:46.140Z,88.98
2019-01-11T11:06:46.150Z,88.84
2019-01-11T11:07:46.119Z,88.73
2019-01-11T11:08:46.106Z,89.67
2019-01-11T11:09:46.101Z,89.56
2019-01-11T11:10:46.084Z,89.67
2019-01-11T11:11:46.093Z,89.87
2019-01-11T11:12:46.063Z,89.98
2019-01-11T11:13:46.060Z,89.71
2019-01-11T11:14:46.043Z,89.25
2019-01-11T11:15:46.034Z,89.77
2019-01-11T11:16:46.039Z,90.29
2019-01-11T11:17:46.006Z,90.08
2019-01-11T11:18:45.995Z,90.39
2019-01-11T11:19:45.984Z,90.08
2019-01-11T11:20:45.974Z,90.29
2019-01-11T11:21:45.963Z,90.81
2019-01-11T11:22:45.970Z,90.81
2019-01-11T11:23:45.945Z,91.02
2019-01-11T11:24:45.930Z,91.02
2019-01-11T11:25:45.920Z,90.29
2019-01-11T11:26:45.908Z,90.60
2019-01-11T11:27:45.916Z,90.50
2019-01-11T11:28:45.884Z,90.60
2019-01-11T11:29:45.873Z,90.19
2019-01-11T11:30:45.862Z,91.22
2019-01-11T11:31:45.856Z,91.64
2019-01-11T11:32:45.859Z,91.22
2019-01-11T11:33:45.828Z,91.53
2019-01-11T11:34:45.825Z,91.33
2019-01-11T11:35:45.806Z,91.95
2019-01-11T11:36:45.801Z,91.95
2019-01-11T11:37:45.835Z,91.91
2019-01-11T11:38:45.780Z,91.80
2019-01-11T11:39:45.789Z,91.80
2019-01-11T11:40:45.766Z,91.70
2019-01-11T11:41:45.772Z,91.70
2019-01-11T11:42:45.773Z,91.70
2019-01-11T11:43:45.722Z,92.11
2019-01-11T11:44:45.708Z,91.86
2019-01-11T11:45:45.715Z,91.55
2019-01-11T11:46:45.688Z,91.24
2019-01-11T11:47:45.674Z,91.24
2019-01-11T11:48:45.684Z,91.24
2019-01-11T11:49:45.653Z,91.70
2019-01-11T11:50:45.643Z,91.45
2019-01-11T11:51:45.630Z,91.66
2019-01-11T11:52:45.619Z,91.55
2019-01-11T11:53:45.630Z,91.55
2019-01-11T11:54:45.599Z,91.45
2019-01-11T11:55:45.587Z,91.66
2019-01-11T11:56:45.581Z,91.14
2019-01-11T11:57:45.564Z,92.07
2019-01-11T11:58:45.576Z,92.59
2019-01-11T11:59:45.542Z,92.94
2019-01-11T12:00:45.535Z,92.49
2019-01-11T12:01:46.691Z,92.22
2019-01-11T12:02:45.508Z,92.59
2019-01-11T12:03:45.524Z,92.74
2019-01-11T12:04:45.486Z,92.80
2019-01-11T12:05:45.480Z,92.49
2019-01-11T12:06:45.470Z,92.90
2019-01-11T12:07:45.457Z,92.80
2019-01-11T12:08:45.463Z,92.38
2019-01-11T12:09:45.433Z,92.49
2019-01-11T12:10:45.422Z,92.80
2019-01-11T12:11:45.415Z,92.34
2019-01-11T12:12:45.401Z,92.49
2019-01-11T12:13:45.411Z,92.18
2019-01-11T12:14:45.376Z,92.80
2019-01-11T12:15:45.368Z,92.59
2019-01-11T12:16:45.357Z,92.85
2019-01-11T12:17:45.341Z,92.38
2019-01-11T12:18:45.360Z,92.34
2019-01-11T12:19:45.320Z,92.34
2019-01-11T12:20:45.313Z,92.55
2019-01-11T12:21:47.797Z,92.49
2019-01-11T12:22:45.288Z,92.13
2019-01-11T12:23:45.276Z,92.24
2019-01-11T12:24:45.286Z,92.13
2019-01-11T12:25:45.257Z,92.24
2019-01-11T12:26:45.247Z,92.24
2019-01-11T12:27:45.232Z,92.65
2019-01-11T12:28:45.226Z,91.93
2019-01-11T12:29:45.235Z,91.61
2019-01-11T12:30:45.200Z,91.41
2019-01-11T12:31:45.537Z,91.51
2019-01-11T12:32:45.846Z,92.03
2019-01-11T12:33:53.445Z,91.72
2019-01-11T12:34:45.175Z,92.44
2019-01-11T12:35:45.151Z,92.76
2019-01-11T12:36:45.133Z,92.76
2019-01-11T12:37:45.123Z,92.34
2019-01-11T12:38:45.111Z,92.71
2019-01-11T12:39:45.119Z,91.93
2019-01-11T12:40:45.132Z,92.34
2019-01-11T12:41:45.078Z,91.61
2019-01-11T12:42:45.071Z,91.67
2019-01-11T12:43:55.558Z,91.93
2019-01-11T12:44:45.067Z,92.91
2019-01-11T12:45:45.047Z,92.13
2019-01-11T12:46:45.024Z,92.44
2019-01-11T12:47:45.013Z,92.55
2019-01-11T12:48:45.002Z,92.55
2019-01-11T12:49:45.045Z,92.34
2019-01-11T12:50:44.999Z,92.34
2019-01-11T12:51:44.980Z,92.24
2019-01-11T12:52:44.967Z,92.24
2019-01-11T12:53:44.948Z,93.27